createdAt,value
2018-11-29T00:00:01.005Z,101168.00
2018-11-29T00:02:44.055Z,101182.00
2018-11-29T00:05:44.893Z,101190.00
2018-11-29T00:08:34.467Z,101192.00
2018-11-29T00:11:15.651Z,101184.00
2018-11-29T00:13:56.845Z,101185.00
2018-11-29T00:16:38.395Z,101178.00
2018-11-29T00:19:20.468Z,101175.00
2018-11-29T00:22:01.673Z,101172.00
2018-11-29T00:24:43.536Z,101169.00
2018-11-29T00:27:25.233Z,101164.00
2018-11-29T00:30:12.999Z,101166.00
2018-11-29T00:32:55.937Z,101156.00
2018-11-29T00:35:37.665Z,101158.00
2018-11-29T00:38:20.352Z,101166.00
2018-11-29T00:41:01.722Z,101164.00
2018-11-29T00:43:43.227Z,101162.00
2018-11-29T00:46:24.462Z,101169.00
2018-11-29T00:49:06.502Z,101164.00
2018-11-29T00:51:48.750Z,101163.00
2018-11-29T00:54:30.083Z,101159.00
2018-11-29T00:57:11.892Z,101157.00
2018-11-29T00:59:53.321Z,101142.00
2018-11-29T01:02:35.587Z,101138.00
2018-11-29T01:05:16.974Z,101134.00
2018-11-29T01:07:58.429Z,101143.00
2018-11-29T01:10:40.035Z,101147.00
2018-11-29T01:13:21.683Z,101142.00
2018-11-29T01:16:04.961Z,101136.00
2018-11-29T01:18:46.582Z,101131.00
2018-11-29T01:21:27.980Z,101124.00
2018-11-29T01:24:10.011Z,101134.00
2018-11-29T01:26:51.985Z,101140.00
2018-11-29T01:29:33.300Z,101138.00
2018-11-29T01:32:14.789Z,101143.00
2018-11-29T01:34:56.738Z,101149.00
2018-11-29T01:37:41.586Z,101156.00
2018-11-29T01:40:23.626Z,101158.00
2018-11-29T01:43:04.884Z,101152.00
2018-11-29T01:45:47.369Z,101146.00
2018-11-29T01:48:28.652Z,101151.00
2018-11-29T01:51:10.692Z,101150.00
2018-11-29T01:53:51.977Z,101141.00
2018-11-29T01:56:34.008Z,101132.00
2018-11-29T01:59:15.170Z,101137.00
2018-11-29T02:01:56.459Z,101136.00
2018-11-29T02:04:37.679Z,101131.00
2018-11-29T02:07:20.077Z,101134.00
2018-11-29T02:10:06.553Z,101138.00
2018-11-29T02:12:48.037Z,101140.00
2018-11-29T02:15:29.524Z,101131.00
2018-11-29T02:18:11.054Z,101131.00
2018-11-29T02:20:52.884Z,101127.00
2018-11-29T02:23:34.493Z,101117.00
2018-11-29T02:26:15.654Z,101109.00
2018-11-29T02:28:57.267Z,101106.00
2018-11-29T02:31:39.580Z,101103.00
2018-11-29T02:34:22.388Z,101094.00
2018-11-29T02:37:03.751Z,101099.00
2018-11-29T02:39:45.264Z,101091.00
2018-11-29T02:42:27.057Z,101082.00
2018-11-29T02:45:21.760Z,101084.00
2018-11-29T02:48:02.928Z,101082.00
2018-11-29T02:50:44.656Z,101085.00
2018-11-29T02:53:27.034Z,101079.00
2018-11-29T02:56:08.520Z,101077.00
2018-11-29T02:58:49.834Z,101072.00
2018-11-29T03:01:31.512Z,101073.00
2018-11-29T03:04:12.746Z,101075.00
2018-11-29T03:06:54.076Z,101066.00
2018-11-29T03:09:36.076Z,101054.00
2018-11-29T03:12:17.711Z,101046.00
2018-11-29T03:14:59.228Z,101044.00
2018-11-29T03:17:41.025Z,101045.00
2018-11-29T03:20:23.143Z,101044.00
2018-11-29T03:23:05.107Z,101049.00
2018-11-29T03:25:46.930Z,101043.00
2018-11-29T03:28:28.593Z,101054.00
2018-11-29T03:31:10.442Z,101047.00
2018-11-29T03:33:52.466Z,101045.00
2018-11-29T03:36:33.667Z,101057.00
2018-11-29T03:39:14.982Z,101050.00
2018-11-29T03:41:56.639Z,101053.00
2018-11-29T03:44:37.920Z,101046.00
2018-11-29T03:47:19.208Z,101051.00
2018-11-29T03:50:02.125Z,101046.00
2018-11-29T03:52:43.770Z,101040.00
2018-11-29T03:55:25.529Z,101035.00
2018-11-29T03:58:08.457Z,101039.00
2018-11-29T04:00:49.772Z,101042.00
2018-11-29T04:03:31.473Z,101039.00
2018-11-29T04:06:12.710Z,101040.00
2018-11-29T04:08:54.091Z,101040.00
2018-11-29T04:11:35.571Z,101037.00
2018-11-29T04:14:17.063Z,101034.00
2018-11-29T04:16:58.727Z,101037.00
2018-11-29T04:19:40.623Z,101041.00
2018-11-29T04:22:22.426Z,101035.00
2018-11-29T04:25:03.779Z,101040.00
2018-11-29T04:27:45.881Z,101039.00
2018-11-29T04:30:27.443Z,101039.00
2018-11-29T04:33:08.720Z,101030.00
2018-11-29T04:35:49.993Z,101024.00
2018-11-29T04:38:31.625Z,101030.00
2018-11-29T04:41:13.258Z,101029.00
2018-11-29T04:43:54.497Z,101039.00
2018-11-29T04:46:43.639Z,101035.00
2018-11-29T04:49:25.305Z,101042.00
2018-11-29T04:52:06.596Z,101037.00
2018-11-29T04:54:48.017Z,101035.00
2018-11-29T04:57:29.917Z,101028.00
2018-11-29T05:00:14.698Z,101027.00
2018-11-29T05:02:56.079Z,101027.00
2018-11-29T05:05:37.731Z,101022.00
2018-11-29T05:08:19.107Z,101022.00
2018-11-29T05:11:00.603Z,101026.00
2018-11-29T05:13:41.676Z,101022.00
2018-11-29T05:16:23.013Z,101019.00
2018-11-29T05:19:04.963Z,101014.00
2018-11-29T05:21:46.931Z,101035.00
2018-11-29T05:24:28.601Z,101029.00
2018-11-29T05:27:10.446Z,101033.00
2018-11-29T05:29:52.227Z,101035.00
2018-11-29T05:32:34.181Z,101028.00
2018-11-29T05:35:15.992Z,101028.00
2018-11-29T05:37:57.505Z,101038.00
2018-11-29T05:40:39.672Z,101038.00
2018-11-29T05:43:21.676Z,101029.00
2018-11-29T05:46:03.624Z,101033.00
2018-11-29T05:48:44.852Z,101043.00
2018-11-29T05:51:26.790Z,101052.00
2018-11-29T05:54:08.585Z,101038.00
2018-11-29T05:56:50.875Z,101034.00
2018-11-29T05:59:33.460Z,101031.00
2018-11-29T06:02:14.820Z,101024.00
2018-11-29T06:04:57.039Z,101028.00
2018-11-29T06:07:38.379Z,101022.00
2018-11-29T06:10:20.684Z,101028.00
2018-11-29T06:13:02.786Z,101032.00
2018-11-29T06:15:44.020Z,101033.00
2018-11-29T06:18:25.637Z,101033.00
2018-11-29T06:21:07.434Z,101033.00
2018-11-29T06:23:49.054Z,101024.00
2018-11-29T06:26:30.709Z,101025.00
2018-11-29T06:29:11.913Z,101021.00
2018-11-29T06:31:53.326Z,101024.00
2018-11-29T06:34:35.746Z,101024.00
2018-11-29T06:37:17.144Z,101021.00
2018-11-29T06:39:58.795Z,101020.00
2018-11-29T06:42:40.581Z,101022.00
2018-11-29T06:45:23.096Z,101026.00
2018-11-29T06:48:04.839Z,101024.00
2018-11-29T06:50:46.543Z,101021.00
2018-11-29T06:53:33.023Z,101022.00
2018-11-29T06:56:14.667Z,101029.00
2018-11-29T06:58:56.207Z,101022.00
2018-11-29T07:01:38.052Z,101019.00
2018-11-29T07:04:19.662Z,101020.00
2018-11-29T07:07:01.464Z,101014.00
2018-11-29T07:09:43.431Z,101014.00
2018-11-29T07:12:24.764Z,101012.00
2018-11-29T07:15:09.099Z,101009.00
2018-11-29T07:17:50.717Z,101011.00
2018-11-29T07:20:32.864Z,101001.00
2018-11-29T07:23:15.066Z,101002.00
2018-11-29T07:26:02.984Z,101011.00
2018-11-29T07:28:44.341Z,101010.00
2018-11-29T07:31:25.949Z,101013.00
2018-11-29T07:34:08.509Z,101025.00
2018-11-29T07:36:50.435Z,101000.00
2018-11-29T07:39:31.642Z,101002.00
2018-11-29T07:42:13.096Z,101003.00
2018-11-29T07:44:54.790Z,101004.00
2018-11-29T07:47:36.144Z,100991.00
2018-11-29T07:50:25.460Z,100985.00
2018-11-29T07:53:07.648Z,100992.00
2018-11-29T07:55:49.513Z,100997.00
2018-11-29T07:58:30.865Z,100996.00
2018-11-29T08:01:12.384Z,100993.00
2018-11-29T08:03:53.878Z,100987.00
2018-11-29T08:06:35.556Z,100990.00
2018-11-29T08:09:16.864Z,101005.00
2018-11-29T08:11:58.284Z,100992.00
2018-11-29T08:14:40.347Z,100989.00
2018-11-29T08:17:22.191Z,100979.00
2018-11-29T08:20:05.687Z,100981.00
2018-11-29T08:22:47.850Z,100977.00
2018-11-29T08:25:29.614Z,100985.00
2018-11-29T08:28:11.953Z,100980.00
2018-11-29T08:30:54.357Z,100970.00
2018-11-29T08:33:36.130Z,100978.00
2018-11-29T08:36:18.026Z,100963.00
2018-11-29T08:39:00.363Z,100957.00
2018-11-29T08:41:42.593Z,100963.00
2018-11-29T08:44:25.113Z,100957.00
2018-11-29T08:47:07.554Z,100964.00
2018-11-29T08:49:49.785Z,100951.00
2018-11-29T08:52:32.722Z,100946.00
2018-11-29T08:55:16.020Z,100947.00
2018-11-29T08:57:57.883Z,100942.00
2018-11-29T09:00:39.718Z,100940.00
2018-11-29T09:03:21.911Z,100943.00
2018-11-29T09:06:03.691Z,100940.00
2018-11-29T09:08:45.697Z,100940.00
2018-11-29T09:11:28.283Z,100936.00
2018-11-29T09:14:10.486Z,100939.00
2018-11-29T09:16:52.204Z,100939.00
2018-11-29T09:19:37.494Z,100932.00
2018-11-29T09:22:17.927Z,100932.00
2018-11-29T09:24:59.144Z,100949.00
2018-11-29T09:27:41.103Z,100925.00
2018-11-29T09:30:23.803Z,100931.00
2018-11-29T09:33:06.164Z,100920.00
2018-11-29T09:35:48.579Z,100925.00
2018-11-29T09:38:30.695Z,100927.00
2018-11-29T09:41:12.884Z,100925.00
2018-11-29T09:43:55.747Z,100921.00
2018-11-29T09:46:38.404Z,100915.00
2018-11-29T09:49:20.507Z,100905.00
2018-11-29T09:52:02.234Z,100900.00
2018-11-29T09:54:43.967Z,100885.00
2018-11-29T09:57:25.833Z,100885.00
2018-11-29T10:00:40.872Z,100872.00
2018-11-29T10:03:22.800Z,100865.00
2018-11-29T10:06:05.649Z,100892.00
2018-11-29T10:08:47.655Z,100866.00
2018-11-29T10:11:29.837Z,100870.00
2018-11-29T10:14:11.692Z,100871.00
2018-11-29T10:16:53.913Z,100866.00
2018-11-29T10:19:36.514Z,100862.00
2018-11-29T10:22:18.270Z,100855.00
2018-11-29T10:25:00.023Z,100857.00
2018-11-29T10:27:45.600Z,100857.00
2018-11-29T10:30:37.187Z,100853.00
2018-11-29T10:33:19.634Z,100856.00
2018-11-29T10:36:02.194Z,100852.00
2018-11-29T10:38:44.144Z,100851.00
2018-11-29T10:41:26.404Z,100856.00
2018-11-29T10:44:09.603Z,100851.00
2018-11-29T10:46:52.034Z,100856.00
2018-11-29T10:49:33.930Z,100847.00
2018-11-29T10:52:15.947Z,100848.00
2018-11-29T10:54:58.407Z,100844.00
2018-11-29T10:57:41.097Z,100830.00
2018-11-29T11:00:30.193Z,100833.00
2018-11-29T11:03:18.540Z,100844.00
2018-11-29T11:06:00.191Z,100829.00
2018-11-29T11:08:42.586Z,100836.00
2018-11-29T11:11:24.474Z,100819.00
2018-11-29T11:14:07.093Z,100822.00
2018-11-29T11:16:49.278Z,100827.00
2018-11-29T11:19:32.601Z,100813.00
2018-11-29T11:22:14.374Z,100823.00
2018-11-29T11:24:56.160Z,100821.00
2018-11-29T11:27:38.265Z,100811.00
2018-11-29T11:30:21.660Z,100811.00
2018-11-29T11:33:03.485Z,100802.00
2018-11-29T11:35:45.205Z,100799.00
2018-11-29T11:38:28.139Z,100795.00
2018-11-29T11:41:10.780Z,100788.00
2018-11-29T11:43:53.294Z,100781.00
2018-11-29T11:46:35.402Z,100777.00
2018-11-29T11:49:17.656Z,100778.00
2018-11-29T11:51:59.365Z,100774.00
2018-11-29T11:54:41.161Z,100762.00
2018-11-29T11:57:23.554Z,100778.00
2018-11-29T12:00:10.387Z,100785.00
2018-11-29T12:03:01.483Z,100779.00
2018-11-29T12:05:43.642Z,100777.00
2018-11-29T12:08:25.395Z,100773.00
2018-11-29T12:11:07.807Z,100757.00
2018-11-29T12:13:49.981Z,100762.00
2018-11-29T12:16:32.354Z,100761.00
2018-11-29T12:19:14.497Z,100770.00
2018-11-29T12:21:56.692Z,100769.00
2018-11-29T12:24:38.621Z,100758.00
2018-11-29T12:27:20.920Z,100762.00
2018-11-29T12:30:03.020Z,100765.00
2018-11-29T12:32:45.003Z,100757.00
2018-11-29T12:35:27.265Z,100749.00
2018-11-29T12:38:10.126Z,100741.00
2018-11-29T12:40:52.443Z,100754.00
2018-11-29T12:43:36.199Z,100750.00
2018-11-29T12:46:18.291Z,100753.00
2018-11-29T12:49:00.757Z,100741.00
2018-11-29T12:51:42.636Z,100742.00
2018-11-29T12:54:24.478Z,100734.00
2018-11-29T12:57:06.829Z,100736.00
2018-11-29T12:59:48.940Z,100740.00
2018-11-29T13:02:31.676Z,100735.00
2018-11-29T13:05:13.659Z,100734.00
2018-11-29T13:07:55.952Z,100729.00
2018-11-29T13:10:38.701Z,100730.00
2018-11-29T13:13:21.779Z,100729.00
2018-11-29T13:16:03.579Z,100742.00
2018-11-29T13:18:46.265Z,100733.00
2018-11-29T13:21:28.910Z,100720.00
2018-11-29T13:24:10.987Z,100716.00
2018-11-29T13:26:53.422Z,100718.00
2018-11-29T13:29:35.191Z,100711.00
2018-11-29T13:32:17.690Z,100706.00
2018-11-29T13:34:59.748Z,100696.00
2018-11-29T13:37:41.774Z,100681.00
2018-11-29T13:40:23.643Z,100685.00
2018-11-29T13:43:07.229Z,100691.00
2018-11-29T13:45:50.272Z,100681.00
2018-11-29T13:48:32.265Z,100667.00
2018-11-29T13:51:14.554Z,100663.00
2018-11-29T13:53:56.921Z,100669.00
2018-11-29T13:56:38.642Z,100663.00
2018-11-29T13:59:20.915Z,100684.00
2018-11-29T14:02:03.015Z,100684.00
2018-11-29T14:04:44.809Z,100678.00
2018-11-29T14:07:26.882Z,100676.00
2018-11-29T14:10:12.556Z,100687.00
2018-11-29T14:12:58.152Z,100676.00
2018-11-29T14:15:40.145Z,100675.00
2018-11-29T14:18:22.568Z,100678.00
2018-11-29T14:21:05.195Z,100668.00
2018-11-29T14:23:47.319Z,100677.00
2018-11-29T14:26:29.429Z,100667.00
2018-11-29T14:29:12.431Z,100678.00
2018-11-29T14:31:55.115Z,100666.00
2018-11-29T14:34:38.322Z,100660.00
2018-11-29T14:37:20.251Z,100664.00
2018-11-29T14:40:02.391Z,100656.00
2018-11-29T14:42:45.348Z,100647.00
2018-11-29T14:45:28.000Z,100636.00
2018-11-29T14:48:09.870Z,100640.00
2018-11-29T14:50:52.573Z,100657.00
2018-11-29T14:53:34.477Z,100638.00
2018-11-29T14:56:16.431Z,100635.00
2018-11-29T14:58:58.713Z,100638.00
2018-11-29T15:01:40.944Z,100630.00
2018-11-29T15:04:23.580Z,100633.00
2018-11-29T15:07:06.304Z,100633.00
2018-11-29T15:09:48.525Z,100626.00
2018-11-29T15:12:30.443Z,100635.00
2018-11-29T15:15:13.515Z,100636.00
2018-11-29T15:17:56.967Z,100633.00
2018-11-29T15:20:44.072Z,100633.00
2018-11-29T15:23:25.951Z,100633.00
2018-11-29T15:26:07.872Z,100625.00
2018-11-29T15:28:52.476Z,100629.00
2018-11-29T15:31:34.852Z,100630.00
2018-11-29T15:34:16.951Z,100635.00
2018-11-29T15:36:59.031Z,100621.00
2018-11-29T15:39:40.748Z,100623.00
2018-11-29T15:42:23.171Z,100628.00
2018-11-29T15:45:08.533Z,100622.00
2018-11-29T15:47:50.666Z,100628.00
2018-11-29T15:50:33.824Z,100614.00
2018-11-29T15:53:15.940Z,100607.00
2018-11-29T15:55:57.952Z,100607.00
2018-11-29T15:58:39.962Z,100630.00
2018-11-29T16:01:22.372Z,100615.00
2018-11-29T16:04:04.259Z,100627.00
2018-11-29T16:06:46.299Z,100608.00
2018-11-29T16:09:28.546Z,100611.00
2018-11-29T16:12:10.711Z,100613.00
2018-11-29T16:14:53.399Z,100610.00
2018-11-29T16:17:35.195Z,100615.00
2018-11-29T16:20:30.996Z,100620.00
2018-11-29T16:23:13.199Z,100618.00
2018-11-29T16:25:55.015Z,100621.00
2018-11-29T16:28:37.147Z,100634.00
2018-11-29T16:31:19.527Z,100625.00
2018-11-29T16:34:02.912Z,100616.00
2018-11-29T16:36:45.375Z,100624.00
2018-11-29T16:39:28.535Z,100641.00
2018-11-29T16:42:11.732Z,100627.00
2018-11-29T16:44:53.754Z,100635.00
2018-11-29T16:47:35.658Z,100625.00
2018-11-29T16:50:18.507Z,100615.00
2018-11-29T16:53:01.204Z,100615.00
2018-11-29T16:55:45.954Z,100621.00
2018-11-29T16:58:30.744Z,100611.00
2018-11-29T17:01:12.812Z,100627.00
2018-11-29T17:03:55.532Z,100605.00
2018-11-29T17:06:37.688Z,100608.00
2018-11-29T17:09:19.457Z,100601.00
2018-11-29T17:12:01.886Z,100588.00
2018-11-29T17:14:43.683Z,100592.00
2018-11-29T17:17:26.137Z,100584.00
2018-11-29T17:20:11.633Z,100568.00
2018-11-29T17:23:07.542Z,100583.00
2018-11-29T17:25:49.810Z,100560.00
2018-11-29T17:28:31.915Z,100551.00
2018-11-29T17:31:16.015Z,100553.00
2018-11-29T17:33:57.686Z,100547.00
2018-11-29T17:36:39.815Z,100552.00
2018-11-29T17:39:22.218Z,100539.00
2018-11-29T17:42:04.359Z,100542.00
2018-11-29T17:44:46.113Z,100548.00
2018-11-29T17:47:28.467Z,100542.00
2018-11-29T17:50:46.759Z,100539.00
2018-11-29T17:53:28.886Z,100537.00
2018-11-29T17:56:13.619Z,100530.00
2018-11-29T17:58:55.629Z,100528.00
2018-11-29T18:01:37.726Z,100526.00
2018-11-29T18:04:19.931Z,100527.00
2018-11-29T18:07:03.774Z,100529.00
2018-11-29T18:09:47.168Z,100533.00
2018-11-29T18:12:29.476Z,100540.00
2018-11-29T18:15:28.855Z,100526.00
2018-11-29T18:18:11.021Z,100534.00
2018-11-29T18:20:53.726Z,100536.00
2018-11-29T18:23:36.810Z,100525.00
2018-11-29T18:26:18.583Z,100529.00
2018-11-29T18:29:00.328Z,100522.00
2018-11-29T18:31:42.597Z,100502.00
2018-11-29T18:34:25.195Z,100514.00
2018-11-29T18:37:07.522Z,100527.00
2018-11-29T18:39:50.607Z,100527.00
2018-11-29T18:42:33.471Z,100520.00
2018-11-29T18:45:18.454Z,100522.00
2018-11-29T18:48:01.633Z,100512.00
2018-11-29T18:50:44.796Z,100499.00
2018-11-29T18:53:29.262Z,100501.00
2018-11-29T18:56:11.358Z,100496.00
2018-11-29T18:58:55.202Z,100505.00
2018-11-29T19:01:36.968Z,100503.00
2018-11-29T19:04:19.668Z,100499.00
2018-11-29T19:07:01.119Z,100496.00
2018-11-29T19:09:42.719Z,100485.00
2018-11-29T19:12:25.150Z,100505.00
2018-11-29T19:15:12.457Z,100497.00
2018-11-29T19:17:55.510Z,100485.00
2018-11-29T19:20:38.641Z,100485.00
2018-11-29T19:23:20.585Z,100486.00
2018-11-29T19:26:05.321Z,100484.00
2018-11-29T19:28:47.188Z,100503.00
2018-11-29T19:31:29.624Z,100505.00
2018-11-29T19:34:11.790Z,100490.00
2018-11-29T19:36:55.424Z,100488.00
2018-11-29T19:39:39.421Z,100480.00
2018-11-29T19:42:21.771Z,100492.00
2018-11-29T19:45:05.398Z,100497.00
2018-11-29T19:47:47.823Z,100499.00
2018-11-29T19:50:29.597Z,100473.00
2018-11-29T19:53:18.034Z,100477.00
2018-11-29T19:56:02.877Z,100481.00
2018-11-29T19:58:44.609Z,100466.00
2018-11-29T20:01:26.433Z,100462.00
2018-11-29T20:04:10.681Z,100480.00
2018-11-29T20:06:52.380Z,100485.00
2018-11-29T20:09:33.656Z,100476.00
2018-11-29T20:12:15.929Z,100494.00
2018-11-29T20:14:57.447Z,100482.00
2018-11-29T20:17:39.137Z,100468.00
2018-11-29T20:20:20.933Z,100479.00
2018-11-29T20:23:02.638Z,100472.00
2018-11-29T20:25:47.008Z,100469.00
2018-11-29T20:28:30.543Z,100458.00
2018-11-29T20:31:13.648Z,100477.00
2018-11-29T20:33:56.347Z,100471.00
2018-11-29T20:36:40.320Z,100470.00
2018-11-29T20:39:23.032Z,100452.00
2018-11-29T20:42:05.117Z,100459.00
2018-11-29T20:44:46.845Z,100457.00
2018-11-29T20:47:28.635Z,100453.00
2018-11-29T20:50:14.800Z,100445.00
2018-11-29T20:52:57.311Z,100466.00
2018-11-29T20:55:39.074Z,100447.00
2018-11-29T20:58:20.421Z,100444.00
2018-11-29T21:01:01.931Z,100434.00
2018-11-29T21:03:44.369Z,100432.00
2018-11-29T21:06:26.693Z,100433.00
2018-11-29T21:09:11.849Z,100434.00
2018-11-29T21:11:58.247Z,100437.00
2018-11-29T21:14:44.346Z,100415.00
2018-11-29T21:17:26.032Z,100405.00
2018-11-29T21:20:11.290Z,100416.00
2018-11-29T21:22:54.723Z,100419.00
2018-11-29T21:25:36.535Z,100396.00
2018-11-29T21:28:19.206Z,100400.00
2018-11-29T21:31:00.632Z,100396.00
2018-11-29T21:33:41.912Z,100399.00
2018-11-29T21:36:24.799Z,100402.00
2018-11-29T21:39:07.405Z,100407.00
2018-11-29T21:41:49.447Z,100398.00
2018-11-29T21:44:30.620Z,100398.00
2018-11-29T21:47:12.313Z,100394.00
2018-11-29T21:49:54.050Z,100402.00
2018-11-29T21:52:35.175Z,100382.00
2018-11-29T21:55:16.626Z,100392.00
2018-11-29T21:57:58.357Z,100393.00
2018-11-29T22:00:39.780Z,100374.00
2018-11-29T22:03:21.778Z,100387.00
2018-11-29T22:06:03.431Z,100377.00
2018-11-29T22:08:45.705Z,100381.00
2018-11-29T22:11:29.309Z,100376.00
2018-11-29T22:14:10.879Z,100366.00
2018-11-29T22:16:52.952Z,100364.00
2018-11-29T22:19:34.182Z,100370.00
2018-11-29T22:22:16.068Z,100377.00
2018-11-29T22:24:57.439Z,100378.00
2018-11-29T22:27:39.381Z,100373.00
2018-11-29T22:30:20.966Z,100377.00
2018-11-29T22:33:02.641Z,100375.00
2018-11-29T22:35:44.358Z,100374.00
2018-11-29T22:38:26.059Z,100374.00
2018-11-29T22:41:07.808Z,100359.00
2018-11-29T22:43:50.237Z,100367.00
2018-11-29T22:46:31.665Z,100359.00
2018-11-29T22:49:13.004Z,100356.00
2018-11-29T22:51:54.526Z,100347.00
2018-11-29T22:54:36.372Z,100360.00
2018-11-29T22:57:18.228Z,100352.00
2018-11-29T23:00:01.145Z,100345.00
2018-11-29T23:02:42.446Z,100330.00
2018-11-29T23:05:27.974Z,100333.00
2018-11-29T23:08:09.955Z,100333.00
2018-11-29T23:10:51.515Z,100340.00
2018-11-29T23:13:32.878Z,100326.00
2018-11-29T23:16:14.449Z,100322.00
2018-11-29T23:18:56.163Z,100319.00
2018-11-29T23:21:37.800Z,100337.00
2018-11-29T23:24:20.255Z,100290.00
2018-11-29T23:27:02.064Z,100308.00
2018-11-29T23:29:43.427Z,100302.00
2018-11-29T23:32:24.642Z,100303.00
2018-11-29T23:35:06.358Z,100312.00
2018-11-29T23:37:47.848Z,100306.00
2018-11-29T23:40:29.840Z,100298.00
2018-11-29T23:43:11.810Z,100308.00
2018-11-29T23:45:53.206Z,100309.00
2018-11-29T23:48:34.405Z,100276.00
2018-11-29T23:51:16.089Z,100284.00
2018-11-29T23:53:57.518Z,100299.00
2018-11-29T23:56:38.673Z,100299.00
2018-11-29T23:59:20.802Z,100302.00
